sensor_id;sensor_type;location;lat;lon;timestamp;pressure;altitude;pressure_sealevel;temperature;humidity
21109;BME280;10712;52.944;9.098;2024-03-06T00:02:09;101874.69;;;12.35;65.38
21109;BME280;10712;52.944;9.098;2024-03-06T00:04:35;101879.31;;;12.32;65.57
21109;BME280;10712;52.944;9.098;2024-03-06T00:07:01;101886.38;;;12.33;65.59
21109;BME280;10712;52.944;9.098;2024-03-06T00:09:27;101891.81;;;12.31;65.58
21109;BME280;10712;52.944;9.098;2024-03-06T00:11:54;101887.50;;;12.29;65.84
21109;BME280;10712;52.944;9.098;2024-03-06T00:14:20;101886.63;;;12.28;65.77
21109;BME280;10712;52.944;9.098;2024-03-06T00:16:50;101884.75;;;12.30;65.74
21109;BME280;10712;52.944;9.098;2024-03-06T00:19:19;101888.50;;;12.26;65.69
21109;BME280;10712;52.944;9.098;2024-03-06T00:21:46;101890.16;;;12.29;65.66
21109;BME280;10712;52.944;9.098;2024-03-06T00:24:13;101893.41;;;12.35;65.93
21109;BME280;10712;52.944;9.098;2024-03-06T00:26:41;101891.59;;;12.36;65.65
21109;BME280;10712;52.944;9.098;2024-03-06T00:29:08;101893.34;;;12.37;65.64
21109;BME280;10712;52.944;9.098;2024-03-06T00:31:34;101896.88;;;12.37;65.68
21109;BME280;10712;52.944;9.098;2024-03-06T00:34:00;101895.16;;;12.36;65.85
21109;BME280;10712;52.944;9.098;2024-03-06T00:36:26;101895.44;;;12.30;65.92
21109;BME280;10712;52.944;9.098;2024-03-06T00:38:52;101904.22;;;12.32;66.28
21109;BME280;10712;52.944;9.098;2024-03-06T00:41:17;101900.63;;;12.33;66.00
21109;BME280;10712;52.944;9.098;2024-03-06T00:43:43;101898.88;;;12.32;66.04
21109;BME280;10712;52.944;9.098;2024-03-06T00:46:09;101905.16;;;12.31;66.13
21109;BME280;10712;52.944;9.098;2024-03-06T00:48:35;101910.59;;;12.30;66.16
21109;BME280;10712;52.944;9.098;2024-03-06T00:51:00;101913.19;;;12.31;66.24
21109;BME280;10712;52.944;9.098;2024-03-06T00:53:26;101917.06;;;12.24;66.33
21109;BME280;10712;52.944;9.098;2024-03-06T00:55:52;101914.28;;;12.27;66.24
21109;BME280;10712;52.944;9.098;2024-03-06T00:58:18;101909.16;;;12.22;66.40
21109;BME280;10712;52.944;9.098;2024-03-06T01:00:43;101916.13;;;12.25;66.52
21109;BME280;10712;52.944;9.098;2024-03-06T01:03:09;101919.63;;;12.27;66.32
21109;BME280;10712;52.944;9.098;2024-03-06T01:05:35;101929.66;;;12.22;66.39
21109;BME280;10712;52.944;9.098;2024-03-06T01:08:01;101933.38;;;12.18;66.75
21109;BME280;10712;52.944;9.098;2024-03-06T01:10:26;101924.31;;;12.22;66.62
21109;BME280;10712;52.944;9.098;2024-03-06T01:12:52;101930.38;;;12.26;66.55
21109;BME280;10712;52.944;9.098;2024-03-06T01:15:18;101929.50;;;12.25;66.34
21109;BME280;10712;52.944;9.098;2024-03-06T01:17:44;101930.44;;;12.24;66.47
21109;BME280;10712;52.944;9.098;2024-03-06T01:20:10;101938.25;;;12.29;66.24
21109;BME280;10712;52.944;9.098;2024-03-06T01:22:36;101935.78;;;12.24;66.50
21109;BME280;10712;52.944;9.098;2024-03-06T01:25:02;101942.28;;;12.18;66.53
21109;BME280;10712;52.944;9.098;2024-03-06T01:27:29;101949.41;;;12.18;66.58
21109;BME280;10712;52.944;9.098;2024-03-06T01:29:55;101944.06;;;12.18;66.65
21109;BME280;10712;52.944;9.098;2024-03-06T01:32:20;101949.34;;;12.19;66.57
21109;BME280;10712;52.944;9.098;2024-03-06T01:34:46;101952.91;;;12.20;66.47
21109;BME280;10712;52.944;9.098;2024-03-06T01:37:12;101954.63;;;12.21;66.49
21109;BME280;10712;52.944;9.098;2024-03-06T01:39:38;101959.97;;;12.21;66.73
21109;BME280;10712;52.944;9.098;2024-03-06T01:42:03;101961.03;;;12.17;66.77
21109;BME280;10712;52.944;9.098;2024-03-06T01:44:29;101962.72;;;12.19;66.76
21109;BME280;10712;52.944;9.098;2024-03-06T01:46:55;101961.19;;;12.14;66.77
21109;BME280;10712;52.944;9.098;2024-03-06T01:49:24;101966.00;;;12.06;66.86
21109;BME280;10712;52.944;9.098;2024-03-06T01:51:57;101963.28;;;12.07;66.83
21109;BME280;10712;52.944;9.098;2024-03-06T01:54:24;101957.06;;;12.07;66.63
21109;BME280;10712;52.944;9.098;2024-03-06T01:56:51;101955.97;;;12.11;66.81
21109;BME280;10712;52.944;9.098;2024-03-06T01:59:21;101955.22;;;12.09;66.85
21109;BME280;10712;52.944;9.098;2024-03-06T02:01:53;101956.47;;;12.00;67.27
21109;BME280;10712;52.944;9.098;2024-03-06T02:04:20;101956.53;;;11.99;67.47
21109;BME280;10712;52.944;9.098;2024-03-06T02:06:47;101959.22;;;11.99;67.35
21109;BME280;10712;52.944;9.098;2024-03-06T02:09:13;101960.66;;;12.06;67.17
21109;BME280;10712;52.944;9.098;2024-03-06T02:11:42;101961.41;;;12.09;67.15
21109;BME280;10712;52.944;9.098;2024-03-06T02:14:08;101956.94;;;12.10;66.99
21109;BME280;10712;52.944;9.098;2024-03-06T02:16:37;101956.94;;;12.10;67.13
21109;BME280;10712;52.944;9.098;2024-03-06T02:19:05;101955.31;;;12.06;67.02
21109;BME280;10712;52.944;9.098;2024-03-06T02:21:31;101950.72;;;12.09;66.82
21109;BME280;10712;52.944;9.098;2024-03-06T02:23:57;101949.88;;;12.09;66.82
21109;BME280;10712;52.944;9.098;2024-03-06T02:26:24;101946.50;;;12.04;66.93
21109;BME280;10712;52.944;9.098;2024-03-06T02:28:52;101953.47;;;12.08;67.03
21109;BME280;10712;52.944;9.098;2024-03-06T02:31:19;101953.47;;;12.08;66.88
21109;BME280;10712;52.944;9.098;2024-03-06T02:33:46;101949.97;;;12.06;66.86
21109;BME280;10712;52.944;9.098;2024-03-06T02:36:18;101949.97;;;12.06;66.89
21109;BME280;10712;52.944;9.098;2024-03-06T02:38:45;101949.34;;;12.01;67.12
21109;BME280;10712;52.944;9.098;2024-03-06T02:41:12;101950.28;;;12.00;67.07
21109;BME280;10712;52.944;9.098;2024-03-06T02:43:39;101949.13;;;12.05;67.04
21109;BME280;10712;52.944;9.098;2024-03-06T02:46:05;101950.84;;;12.06;67.02
21109;BME280;10712;52.944;9.098;2024-03-06T02:48:31;101947.38;;;12.04;67.01
21109;BME280;10712;52.944;9.098;2024-03-06T02:50:57;101956.94;;;12.10;67.09
21109;BME280;10712;52.944;9.098;2024-03-06T02:53:23;101962.53;;;12.04;67.15
21109;BME280;10712;52.944;9.098;2024-03-06T02:55:51;101965.16;;;12.05;67.11
21109;BME280;10712;52.944;9.098;2024-03-06T02:58:16;101957.06;;;12.07;67.01
21109;BME280;10712;52.944;9.098;2024-03-06T03:00:43;101956.94;;;12.10;67.14
21109;BME280;10712;52.944;9.098;2024-03-06T03:03:10;101955.06;;;12.12;66.98
21109;BME280;10712;52.944;9.098;2024-03-06T03:05:38;101956.94;;;12.10;67.05
21109;BME280;10712;52.944;9.098;2024-03-06T03:08:06;101949.88;;;12.09;66.97
21109;BME280;10712;52.944;9.098;2024-03-06T03:10:32;101947.31;;;12.06;67.07
21109;BME280;10712;52.944;9.098;2024-03-06T03:13:00;101961.41;;;12.09;66.86
21109;BME280;10712;52.944;9.098;2024-03-06T03:15:26;101958.94;;;12.05;67.00
21109;BME280;10712;52.944;9.098;2024-03-06T03:17:52;101968.41;;;12.12;67.06
21109;BME280;10712;52.944;9.098;2024-03-06T03:20:17;101962.13;;;12.13;66.89
21109;BME280;10712;52.944;9.098;2024-03-06T03:22:43;101960.22;;;12.16;66.91
21109;BME280;10712;52.944;9.098;2024-03-06T03:25:10;101958.00;;;12.06;66.78
21109;BME280;10712;52.944;9.098;2024-03-06T03:27:41;101956.94;;;12.10;66.88
21109;BME280;10712;52.944;9.098;2024-03-06T03:30:10;101966.75;;;12.09;66.79
21109;BME280;10712;52.944;9.098;2024-03-06T03:32:37;101964.16;;;12.08;66.62
21109;BME280;10712;52.944;9.098;2024-03-06T03:35:07;101964.97;;;12.10;66.59
21109;BME280;10712;52.944;9.098;2024-03-06T03:37:33;101969.34;;;12.11;66.63
21109;BME280;10712;52.944;9.098;2024-03-06T03:40:00;101971.88;;;12.14;66.62
21109;BME280;10712;52.944;9.098;2024-03-06T03:42:25;101966.47;;;12.15;66.60
21109;BME280;10712;52.944;9.098;2024-03-06T03:44:51;101970.03;;;12.16;66.56
21109;BME280;10712;52.944;9.098;2024-03-06T03:47:18;101972.81;;;12.13;66.83
21109;BME280;10712;52.944;9.098;2024-03-06T03:49:44;101974.78;;;12.09;66.93
21109;BME280;10712;52.944;9.098;2024-03-06T03:52:10;101976.41;;;12.12;66.79
21109;BME280;10712;52.944;9.098;2024-03-06T03:54:35;101975.41;;;12.14;66.53
21109;BME280;10712;52.944;9.098;2024-03-06T03:57:01;101975.41;;;12.14;66.88
21109;BME280;10712;52.944;9.098;2024-03-06T03:59:27;101978.03;;;12.16;66.83
21109;BME280;10712;52.944;9.098;2024-03-06T04:01:53;101977.00;;;12.18;66.84
21109;BME280;10712;52.944;9.098;2024-03-06T04:04:19;101982.28;;;12.20;66.72
21109;BME280;10712;52.944;9.098;2024-03-06T04:06:45;101984.97;;;12.20;66.84
21109;BME280;10712;52.944;9.098;2024-03-06T04:09:11;101982.34;;;12.18;66.71
21109;BME280;10712;52.944;9.098;2024-03-06T04:11:38;101982.34;;;12.18;66.68
21109;BME280;10712;52.944;9.098;2024-03-06T04:14:04;101984.97;;;12.20;66.52
21109;BME280;10712;52.944;9.098;2024-03-06T04:16:33;101989.59;;;12.16;66.63
21109;BME280;10712;52.944;9.098;2024-03-06T04:18:59;101989.16;;;12.26;66.33
21109;BME280;10712;52.944;9.098;2024-03-06T04:21:25;101989.22;;;12.24;66.39
21109;BME280;10712;52.944;9.098;2024-03-06T04:23:50;101995.38;;;12.26;66.35
21109;BME280;10712;52.944;9.098;2024-03-06T04:26:16;101991.63;;;12.30;66.17
21109;BME280;10712;52.944;9.098;2024-03-06T04:28:43;101989.63;;;12.35;66.09
21109;BME280;10712;52.944;9.098;2024-03-06T04:31:09;101995.84;;;12.36;66.14
21109;BME280;10712;52.944;9.098;2024-03-06T04:33:36;102002.03;;;12.36;65.94
21109;BME280;10712;52.944;9.098;2024-03-06T04:36:05;101999.50;;;12.33;65.89
21109;BME280;10712;52.944;9.098;2024-03-06T04:38:31;102003.03;;;12.34;65.91
21109;BME280;10712;52.944;9.098;2024-03-06T04:40:57;101997.03;;;12.29;65.80
21109;BME280;10712;52.944;9.098;2024-03-06T04:43:23;102001.56;;;12.27;65.75
21109;BME280;10712;52.944;9.098;2024-03-06T04:45:49;102002.72;;;12.21;65.77
21109;BME280;10712;52.944;9.098;2024-03-06T04:48:15;102008.06;;;12.21;66.00
21109;BME280;10712;52.944;9.098;2024-03-06T04:50:41;102018.81;;;12.19;65.86
21109;BME280;10712;52.944;9.098;2024-03-06T04:53:07;102020.63;;;12.19;65.88
21109;BME280;10712;52.944;9.098;2024-03-06T04:55:33;102025.16;;;12.17;65.86
21109;BME280;10712;52.944;9.098;2024-03-06T04:58:03;102019.81;;;12.17;65.96
21109;BME280;10712;52.944;9.098;2024-03-06T05:00:29;102029.56;;;12.18;65.97
21109;BME280;10712;52.944;9.098;2024-03-06T05:02:55;102035.06;;;12.15;65.93
21109;BME280;10712;52.944;9.098;2024-03-06T05:05:22;102040.25;;;12.18;65.83
21109;BME280;10712;52.944;9.098;2024-03-06T05:07:51;102041.94;;;12.20;65.88
21109;BME280;10712;52.944;9.098;2024-03-06T05:10:17;102045.75;;;12.15;66.07
21109;BME280;10712;52.944;9.098;2024-03-06T05:12:43;102053.72;;;12.16;65.80
21109;BME280;10712;52.944;9.098;2024-03-06T05:15:10;102053.78;;;12.15;65.87
21109;BME280;10712;52.944;9.098;2024-03-06T05:17:36;102051.97;;;12.15;65.83
21109;BME280;10712;52.944;9.098;2024-03-06T05:20:03;102051.22;;;12.12;65.90
21109;BME280;10712;52.944;9.098;2024-03-06T05:22:30;102052.25;;;12.09;65.96
21109;BME280;10712;52.944;9.098;2024-03-06T05:24:56;102056.84;;;12.06;65.81
21109;BME280;10712;52.944;9.098;2024-03-06T05:27:22;102057.00;;;12.03;65.78
21109;BME280;10712;52.944;9.098;2024-03-06T05:29:48;102061.47;;;12.02;65.88
21109;BME280;10712;52.944;9.098;2024-03-06T05:32:14;102059.72;;;12.01;66.31
21109;BME280;10712;52.944;9.098;2024-03-06T05:34:39;102064.31;;;11.98;66.48
21109;BME280;10712;52.944;9.098;2024-03-06T05:37:05;102064.50;;;11.93;66.59
21109;BME280;10712;52.944;9.098;2024-03-06T05:39:31;102073.50;;;11.91;66.88
21109;BME280;10712;52.944;9.098;2024-03-06T05:42:04;102076.88;;;11.96;66.72
21109;BME280;10712;52.944;9.098;2024-03-06T05:44:31;102074.38;;;11.91;66.91
21109;BME280;10712;52.944;9.098;2024-03-06T05:46:59;102084.34;;;11.88;67.01
21109;BME280;10712;52.944;9.098;2024-03-06T05:49:27;102087.00;;;11.88;66.97
21109;BME280;10712;52.944;9.098;2024-03-06T05:51:53;102084.47;;;11.84;67.10
21109;BME280;10712;52.944;9.098;2024-03-06T05:54:22;102097.00;;;11.82;66.94
21109;BME280;10712;52.944;9.098;2024-03-06T05:56:50;102097.00;;;11.82;67.15
21109;BME280;10712;52.944;9.098;2024-03-06T05:59:18;102089.94;;;11.81;67.04
21109;BME280;10712;52.944;9.098;2024-03-06T06:01:44;102100.69;;;11.80;67.17
21109;BME280;10712;52.944;9.098;2024-03-06T06:04:13;102106.63;;;11.87;67.17
21109;BME280;10712;52.944;9.098;2024-03-06T06:06:40;102103.91;;;11.88;67.05
21109;BME280;10712;52.944;9.098;2024-03-06T06:09:06;102105.97;;;11.81;67.11
21109;BME280;10712;52.944;9.098;2024-03-06T06:11:33;102113.38;;;11.73;67.49
21109;BME280;10712;52.944;9.098;2024-03-06T06:13:59;102114.44;;;11.69;67.58
21109;BME280;10712;52.944;9.098;2024-03-06T06:16:25;102120.56;;;11.71;67.85
21109;BME280;10712;52.944;9.098;2024-03-06T06:18:51;102117.50;;;11.60;67.73
21109;BME280;10712;52.944;9.098;2024-03-06T06:21:17;102123.69;;;11.61;67.91
21109;BME280;10712;52.944;9.098;2024-03-06T06:23:44;102126.44;;;11.59;68.18
21109;BME280;10712;52.944;9.098;2024-03-06T06:26:10;102122.13;;;11.55;68.37
21109;BME280;10712;52.944;9.098;2024-03-06T06:28:37;102135.34;;;11.58;68.27
21109;BME280;10712;52.944;9.098;2024-03-06T06:31:05;102127.41;;;11.57;68.19
21109;BME280;10712;52.944;9.098;2024-03-06T06:33:31;102130.13;;;11.55;68.55
21109;BME280;10712;52.944;9.098;2024-03-06T06:35:57;102133.63;;;11.57;68.61
21109;BME280;10712;52.944;9.098;2024-03-06T06:38:23;102138.94;;;11.57;68.58
21109;BME280;10712;52.944;9.098;2024-03-06T06:40:48;102143.41;;;11.57;68.77
21109;BME280;10712;52.944;9.098;2024-03-06T06:43:14;102151.47;;;11.55;69.03
21109;BME280;10712;52.944;9.098;2024-03-06T06:45:41;102150.31;;;11.62;68.65
21109;BME280;10712;52.944;9.098;2024-03-06T06:48:07;102152.09;;;11.62;68.69
21109;BME280;10712;52.944;9.098;2024-03-06T06:50:35;102161.69;;;11.67;68.52
21109;BME280;10712;52.944;9.098;2024-03-06T06:53:01;102159.03;;;11.67;68.47
21109;BME280;10712;52.944;9.098;2024-03-06T06:55:27;102170.63;;;11.66;68.51
21109;BME280;10712;52.944;9.098;2024-03-06T06:57:53;102169.88;;;11.63;68.65
21109;BME280;10712;52.944;9.098;2024-03-06T07:00:19;102176.69;;;11.70;68.55
21109;BME280;10712;52.944;9.098;2024-03-06T07:02:47;102172.22;;;11.70;68.30
21109;BME280;10712;52.944;9.098;2024-03-06T07:05:14;102167.97;;;11.66;68.57
21109;BME280;10712;52.944;9.098;2024-03-06T07:07:40;102178.38;;;11.72;68.44
21109;BME280;10712;52.944;9.098;2024-03-06T07:10:07;102178.69;;;11.65;68.56
21109;BME280;10712;52.944;9.098;2024-03-06T07:12:34;102183.06;;;11.67;68.48
21109;BME280;10712;52.944;9.098;2024-03-06T07:15:00;102189.13;;;11.71;68.56
21109;BME280;10712;52.944;9.098;2024-03-06T07:17:28;102192.66;;;11.71;68.52
21109;BME280;10712;52.944;9.098;2024-03-06T07:19:54;102198.72;;;11.76;68.48
21109;BME280;10712;52.944;9.098;2024-03-06T07:22:20;102195.13;;;11.77;68.42
21109;BME280;10712;52.944;9.098;2024-03-06T07:24:45;102197.00;;;11.75;68.10
21109;BME280;10712;52.944;9.098;2024-03-06T07:27:11;102197.84;;;11.76;68.01
21109;BME280;10712;52.944;9.098;2024-03-06T07:29:37;102205.94;;;11.74;68.15
21109;BME280;10712;52.944;9.098;2024-03-06T07:32:03;102209.59;;;11.70;68.04
21109;BME280;10712;52.944;9.098;2024-03-06T07:34:32;102211.31;;;11.73;67.76
21109;BME280;10712;52.944;9.098;2024-03-06T07:36:59;102213.09;;;11.72;68.08
21109;BME280;10712;52.944;9.098;2024-03-06T07:39:27;102220.06;;;11.76;67.82
21109;BME280;10712;52.944;9.098;2024-03-06T07:41:53;102226.91;;;11.83;67.70
21109;BME280;10712;52.944;9.098;2024-03-06T07:44:20;102234.38;;;11.75;67.99
21109;BME280;10712;52.944;9.098;2024-03-06T07:46:46;102232.63;;;11.74;68.06
21109;BME280;10712;52.944;9.098;2024-03-06T07:49:12;102241.31;;;11.79;68.11
21109;BME280;10712;52.944;9.098;2024-03-06T07:51:38;102243.13;;;11.79;68.09
21109;BME280;10712;52.944;9.098;2024-03-06T07:54:04;102248.28;;;11.83;67.79
21109;BME280;10712;52.944;9.098;2024-03-06T07:56:30;102250.00;;;11.84;67.94
21109;BME280;10712;52.944;9.098;2024-03-06T07:58:56;102251.50;;;11.92;67.77
21109;BME280;10712;52.944;9.098;2024-03-06T08:01:23;102259.59;;;11.90;67.80
21109;BME280;10712;52.944;9.098;2024-03-06T08:03:49;102257.78;;;11.91;67.74
21109;BME280;10712;52.944;9.098;2024-03-06T08:06:15;102260.44;;;11.91;67.82
21109;BME280;10712;52.944;9.098;2024-03-06T08:08:44;102259.78;;;11.86;67.93
21109;BME280;10712;52.944;9.098;2024-03-06T08:11:14;102264.25;;;11.85;67.94
21109;BME280;10712;52.944;9.098;2024-03-06T08:13:40;102263.94;;;11.93;67.80
21109;BME280;10712;52.944;9.098;2024-03-06T08:16:07;102269.28;;;11.93;68.13
21109;BME280;10712;52.944;9.098;2024-03-06T08:18:34;102267.44;;;11.95;67.87
21109;BME280;10712;52.944;9.098;2024-03-06T08:21:02;102273.56;;;11.97;67.86
21109;BME280;10712;52.944;9.098;2024-03-06T08:23:29;102275.50;;;11.93;68.00
21109;BME280;10712;52.944;9.098;2024-03-06T08:25:56;102280.66;;;11.98;68.03
21109;BME280;10712;52.944;9.098;2024-03-06T08:28:21;102280.66;;;11.98;68.06
21109;BME280;10712;52.944;9.098;2024-03-06T08:30:47;102288.19;;;12.10;67.85
21109;BME280;10712;52.944;9.098;2024-03-06T08:33:13;102286.22;;;12.15;67.83
21109;BME280;10712;52.944;9.098;2024-03-06T08:35:39;102293.28;;;12.16;67.80
21109;BME280;10712;52.944;9.098;2024-03-06T08:38:05;102288.56;;;12.22;67.85
21109;BME280;10712;52.944;9.098;2024-03-06T08:40:32;102287.44;;;12.28;67.72
21109;BME280;10712;52.944;9.098;2024-03-06T08:42:58;102283.69;;;12.32;67.63
21109;BME280;10712;52.944;9.098;2024-03-06T08:45:24;102296.03;;;12.36;67.69
21109;BME280;10712;52.944;9.098;2024-03-06T08:47:50;102294.75;;;12.45;67.49
21109;BME280;10712;52.944;9.098;2024-03-06T08:50:16;102295.50;;;12.48;67.36
21109;BME280;10712;52.944;9.098;2024-03-06T08:52:42;102303.53;;;12.48;67.24
21109;BME280;10712;52.944;9.098;2024-03-06T08:55:08;102302.34;;;12.55;67.20
21109;BME280;10712;52.944;9.098;2024-03-06T08:57:39;102302.91;;;12.63;67.21
21109;BME280;10712;52.944;9.098;2024-03-06T09:00:07;102304.81;;;12.60;67.24
21109;BME280;10712;52.944;9.098;2024-03-06T09:02:37;102305.56;;;12.63;66.85
21109;BME280;10712;52.944;9.098;2024-03-06T09:05:08;102308.19;;;12.65;66.81
21109;BME280;10712;52.944;9.098;2024-03-06T09:07:36;102308.81;;;12.72;66.65
21109;BME280;10712;52.944;9.098;2024-03-06T09:10:07;102307.06;;;12.71;66.73
21109;BME280;10712;52.944;9.098;2024-03-06T09:12:34;102311.31;;;12.75;66.51
21109;BME280;10712;52.944;9.098;2024-03-06T09:15:01;102311.13;;;12.79;66.58
21109;BME280;10712;52.944;9.098;2024-03-06T09:17:27;102318.81;;;12.87;66.22
21109;BME280;10712;52.944;9.098;2024-03-06T09:19:54;102316.50;;;12.99;66.12
21109;BME280;10712;52.944;9.098;2024-03-06T09:22:21;102318.16;;;13.02;66.03
21109;BME280;10712;52.944;9.098;2024-03-06T09:24:47;102313.56;;;13.06;65.76
21109;BME280;10712;52.944;9.098;2024-03-06T09:27:14;102326.75;;;13.10;65.87
21109;BME280;10712;52.944;9.098;2024-03-06T09:29:40;102332.72;;;13.17;65.67
21109;BME280;10712;52.944;9.098;2024-03-06T09:32:06;102332.66;;;13.18;65.75
21109;BME280;10712;52.944;9.098;2024-03-06T09:34:32;102336.16;;;13.20;65.72
21109;BME280;10712;52.944;9.098;2024-03-06T09:36:58;102337.75;;;13.24;65.60
21109;BME280;10712;52.944;9.098;2024-03-06T09:39:25;102341.75;;;13.34;65.60
21109;BME280;10712;52.944;9.098;2024-03-06T09:41:51;102349.66;;;13.37;65.57
21109;BME280;10712;52.944;9.098;2024-03-06T09:44:18;102346.84;;;13.40;65.49
21109;BME280;10712;52.944;9.098;2024-03-06T09:46:46;102355.66;;;13.43;65.37
21109;BME280;10712;52.944;9.098;2024-03-06T09:49:18;102359.03;;;13.48;65.35
21109;BME280;10712;52.944;9.098;2024-03-06T09:51:48;102352.44;;;13.55;65.20
21109;BME280;10712;52.944;9.098;2024-03-06T09:54:20;102358.59;;;13.57;64.97
21109;BME280;10712;52.944;9.098;2024-03-06T09:56:47;102361.09;;;13.61;64.78
21109;BME280;10712;52.944;9.098;2024-03-06T09:59:13;102368.91;;;13.66;64.57
21109;BME280;10712;52.944;9.098;2024-03-06T10:02:39;102367.91;;;13.68;64.54
21109;BME280;10712;52.944;9.098;2024-03-06T10:05:04;102364.88;;;13.76;64.45
21109;BME280;10712;52.944;9.098;2024-03-06T10:07:31;102362.56;;;13.87;64.06
21109;BME280;10712;52.944;9.098;2024-03-06T10:09:57;102364.31;;;13.88;63.94
21109;BME280;10712;52.944;9.098;2024-03-06T10:12:23;102362.28;;;13.93;64.02
21109;BME280;10712;52.944;9.098;2024-03-06T10:14:53;102359.31;;;13.99;64.01
21109;BME280;10712;52.944;9.098;2024-03-06T10:17:22;102359.53;;;14.13;63.96
21109;BME280;10712;52.944;9.098;2024-03-06T10:19:49;102359.09;;;14.23;63.24
21109;BME280;10712;52.944;9.098;2024-03-06T10:22:20;102364.78;;;14.34;61.91
21109;BME280;10712;52.944;9.098;2024-03-06T10:24:46;102363.75;;;14.38;61.87
21109;BME280;10712;52.944;9.098;2024-03-06T10:27:16;102366.91;;;14.46;61.58
21109;BME280;10712;52.944;9.098;2024-03-06T10:29:45;102367.72;;;14.48;61.73
21109;BME280;10712;52.944;9.098;2024-03-06T10:32:16;102372.06;;;14.50;62.01
21109;BME280;10712;52.944;9.098;2024-03-06T10:34:44;102373.41;;;14.59;62.22
21109;BME280;10712;52.944;9.098;2024-03-06T10:37:11;102376.78;;;14.81;60.95
21109;BME280;10712;52.944;9.098;2024-03-06T10:39:42;102376.59;;;14.67;61.00
21109;BME280;10712;52.944;9.098;2024-03-06T10:42:13;102373.22;;;14.81;60.77
21109;BME280;10712;52.944;9.098;2024-03-06T10:44:52;102379.78;;;14.75;60.53
21109;BME280;10712;52.944;9.098;2024-03-06T10:47:19;102382.81;;;14.86;60.73
21109;BME280;10712;52.944;9.098;2024-03-06T10:49:46;102381.22;;;14.82;60.90
21109;BME280;10712;52.944;9.098;2024-03-06T10:52:14;102377.25;;;14.89;61.18
21109;BME280;10712;52.944;9.098;2024-03-06T10:54:44;102382.50;;;14.92;61.20
21109;BME280;10712;52.944;9.098;2024-03-06T10:57:13;102383.38;;;14.93;60.87
21109;BME280;10712;52.944;9.098;2024-03-06T10:59:40;102383.69;;;15.04;60.04
21109;BME280;10712;52.944;9.098;2024-03-06T11:02:09;102384.22;;;15.11;59.20
21109;BME280;10712;52.944;9.098;2024-03-06T11:04:36;102387.22;;;15.05;59.43
21109;BME280;10712;52.944;9.098;2024-03-06T11:07:06;102384.84;;;15.16;59.47
21109;BME280;10712;52.944;9.098;2024-03-06T11:09:36;102386.28;;;15.23;58.05
21109;BME280;10712;52.944;9.098;2024-03-06T11:12:06;102388.66;;;15.12;58.60
21109;BME280;10712;52.944;9.098;2024-03-06T11:14:33;102381.22;;;15.17;58.25
21109;BME280;10712;52.944;9.098;2024-03-06T11:17:05;102394.34;;;15.23;58.49
21109;BME280;10712;52.944;9.098;2024-03-06T11:26:01;102391.50;;;15.26;58.03
21109;BME280;10712;52.944;9.098;2024-03-06T11:28:37;102391.81;;;15.20;58.16
21109;BME280;10712;52.944;9.098;2024-03-06T11:31:09;102392.38;;;15.26;58.48
21109;BME280;10712;52.944;9.098;2024-03-06T11:33:44;102395.13;;;15.25;58.58
21109;BME280;10712;52.944;9.098;2024-03-06T11:36:26;102387.78;;;15.46;57.36
21109;BME280;10712;52.944;9.098;2024-03-06T11:39:06;102399.72;;;15.40;57.55
21109;BME280;10712;52.944;9.098;2024-03-06T11:44:01;102393.69;;;15.52;57.96
21109;BME280;10712;52.944;9.098;2024-03-06T11:46:45;102393.84;;;15.49;57.88
21109;BME280;10712;52.944;9.098;2024-03-06T11:49:28;102392.59;;;15.56;57.51
21109;BME280;10712;52.944;9.098;2024-03-06T11:54:25;102385.19;;;15.61;57.83
21109;BME280;10712;52.944;9.098;2024-03-06T11:56:57;102388.78;;;15.77;57.21
21109;BME280;10712;52.944;9.098;2024-03-06T11:59:25;102387.69;;;15.64;57.45
21109;BME280;10712;52.944;9.098;2024-03-06T12:02:03;102379.31;;;15.70;57.64
21109;BME280;10712;52.944;9.098;2024-03-06T12:04:35;102377.75;;;15.66;58.08
21109;BME280;10712;52.944;9.098;2024-03-06T12:07:04;102382.88;;;15.71;58.14
21109;BME280;10712;52.944;9.098;2024-03-06T12:09:35;102384.13;;;15.81;58.19
21109;BME280;10712;52.944;9.098;2024-03-06T12:12:01;102386.53;;;15.86;57.61
21109;BME280;10712;52.944;9.098;2024-03-06T12:14:27;102392.47;;;15.92;57.13
21109;BME280;10712;52.944;9.098;2024-03-06T12:17:01;102393.31;;;15.93;57.17
21109;BME280;10712;52.944;9.098;2024-03-06T12:19:34;102389.69;;;15.94;57.32
21109;BME280;10712;52.944;9.098;2024-03-06T12:22:04;102390.59;;;16.10;56.80
21109;BME280;10712;52.944;9.098;2024-03-06T12:24:34;102389.34;;;16.00;57.07
21109;BME280;10712;52.944;9.098;2024-03-06T12:27:02;102391.25;;;15.98;57.14
21109;BME280;10712;52.944;9.098;2024-03-06T12:29:33;102386.75;;;15.98;57.40
21109;BME280;10712;52.944;9.098;2024-03-06T12:32:01;102391.44;;;15.95;57.54
21109;BME280;10712;52.944;9.098;2024-03-06T12:34:27;102392.50;;;16.08;57.61
21109;BME280;10712;52.944;9.098;2024-03-06T12:36:53;102392.00;;;16.17;57.13
21109;BME280;10712;52.944;9.098;2024-03-06T12:39:19;102387.81;;;16.11;57.23
21109;BME280;10712;52.944;9.098;2024-03-06T12:41:52;102381.41;;;16.14;57.24
21109;BME280;10712;52.944;9.098;2024-03-06T12:44:19;102389.72;;;16.25;57.43
21109;BME280;10712;52.944;9.098;2024-03-06T12:46:46;102374.66;;;16.38;56.30
21109;BME280;10712;52.944;9.098;2024-03-06T12:49:11;102380.03;;;16.23;57.00
21109;BME280;10712;52.944;9.098;2024-03-06T12:51:37;102378.72;;;16.30;56.98
21109;BME280;10712;52.944;9.098;2024-03-06T12:54:03;102384.00;;;16.47;56.83
21109;BME280;10712;52.944;9.098;2024-03-06T12:56:29;102384.16;;;16.60;56.27
21109;BME280;10712;52.944;9.098;2024-03-06T12:58:55;102378.66;;;16.63;56.18
21109;BME280;10712;52.944;9.098;2024-03-06T13:01:21;102382.81;;;16.68;56.39
21109;BME280;10712;52.944;9.098;2024-03-06T13:03:48;102376.72;;;16.80;55.15